Time;durP1;ratioP1;P1;durP2;ratioP2;P2;SDS_P1;SDS_P2;PMS_P1;PMS_P2;Temp;Humidity;BMP_temperature;BMP_pressure;BME280_temperature;BME280_humidity;BME280_pressure;Samples;Min_cycle;Max_cycle;Signal;HPM_P1;HPM_P2
2022/03/21 00:01:32;;;;;;;0.10;0.10;;;;;;;;;;4213990;28;20166;-39
2022/03/21 00:03:33;;;;;;;0.30;0.17;;;;;;;;;;4211852;28;20052;-38
2022/03/21 00:05:34;;;;;;;0.20;0.10;;;;;;;;;;4213872;28;20082;-38
2022/03/21 00:07:35;;;;;;;0.55;0.30;;;;;;;;;;4213962;28;20082;-38
2022/03/21 00:09:36;;;;;;;0.25;0.20;;;;;;;;;;4213985;28;20052;-38
2022/03/21 00:11:37;;;;;;;0.60;0.20;;;;;;;;;;4213607;28;20135;-38
2022/03/21 00:13:38;;;;;;;0.40;0.20;;;;;;;;;;4214051;28;20135;-38
2022/03/21 00:15:39;;;;;;;0.30;0.20;;;;;;;;;;4213667;28;20054;-39
2022/03/21 00:17:40;;;;;;;0.32;0.22;;;;;;;;;;4213144;28;20056;-38
2022/03/21 00:19:41;;;;;;;0.30;0.10;;;;;;;;;;4212593;28;20051;-39
2022/03/21 00:21:42;;;;;;;0.22;0.20;;;;;;;;;;4213687;28;20105;-40
2022/03/21 00:23:43;;;;;;;0.63;0.10;;;;;;;;;;4213391;28;20083;-38
2022/03/21 00:25:44;;;;;;;0.43;0.10;;;;;;;;;;4213605;28;20044;-39
2022/03/21 00:27:45;;;;;;;0.10;0.10;;;;;;;;;;4213646;28;20052;-40
2022/03/21 00:29:48;;;;;;;0.40;0.20;;;;;;;;;;4212546;28;20081;-38
2022/03/21 00:31:50;;;;;;;0.13;0.13;;;;;;;;;;4211831;28;20052;-39
2022/03/21 00:33:51;;;;;;;0.25;0.13;;;;;;;;;;4213556;28;20055;-39
2022/03/21 00:35:52;;;;;;;0.52;0.30;;;;;;;;;;4213731;28;20406;-38
2022/03/21 00:37:53;;;;;;;0.32;0.10;;;;;;;;;;4213606;28;20252;-38
2022/03/21 00:39:54;;;;;;;0.45;0.20;;;;;;;;;;4213360;28;20440;-38
2022/03/21 00:41:55;;;;;;;0.13;0.10;;;;;;;;;;4213434;28;20055;-37
2022/03/21 00:43:56;;;;;;;0.45;0.17;;;;;;;;;;4211738;28;20588;-38
2022/03/21 00:45:57;;;;;;;0.10;0.10;;;;;;;;;;4213031;28;20052;-39
2022/03/21 00:47:58;;;;;;;0.10;0.10;;;;;;;;;;4211530;28;20052;-40
2022/03/21 00:49:59;;;;;;;0.20;0.20;;;;;;;;;;4213359;28;20094;-38
2022/03/21 00:52:00;;;;;;;0.30;0.20;;;;;;;;;;4211837;28;20153;-38
2022/03/21 00:54:01;;;;;;;0.30;0.20;;;;;;;;;;4211914;28;20100;-37
2022/03/21 00:56:02;;;;;;;0.47;0.20;;;;;;;;;;4212015;28;20060;-38
2022/03/21 00:58:03;;;;;;;0.10;0.10;;;;;;;;;;4212860;28;20117;-39
2022/03/21 01:00:06;;;;;;;0.20;0.20;;;;;;;;;;4213096;28;20490;-41
2022/03/21 01:02:08;;;;;;;0.40;0.20;;;;;;;;;;4212474;28;20534;-38
2022/03/21 01:04:09;;;;;;;0.20;0.20;;;;;;;;;;4213056;28;20113;-38
2022/03/21 01:06:10;;;;;;;0.25;0.20;;;;;;;;;;4213048;28;20135;-38
2022/03/21 01:08:11;;;;;;;0.45;0.20;;;;;;;;;;4212994;28;20052;-38
2022/03/21 01:10:16;;;;;;;0.20;0.20;;;;;;;;;;4213099;28;20087;-39
2022/03/21 01:12:18;;;;;;;0.10;0.10;;;;;;;;;;4212909;28;20059;-38
2022/03/21 01:14:19;;;;;;;0.52;0.20;;;;;;;;;;4212971;28;20055;-38
2022/03/21 01:16:20;;;;;;;0.85;0.22;;;;;;;;;;4213073;28;20048;-39
2022/03/21 01:18:22;;;;;;;0.47;0.20;;;;;;;;;;4211179;28;20430;-42
2022/03/21 01:20:24;;;;;;;0.45;0.20;;;;;;;;;;4213072;28;20109;-38
2022/03/21 01:22:25;;;;;;;0.52;0.30;;;;;;;;;;4212701;28;20105;-39
2022/03/21 01:24:26;;;;;;;0.25;0.20;;;;;;;;;;4212722;28;20055;-40
2022/03/21 01:26:27;;;;;;;2.55;0.22;;;;;;;;;;4212880;28;20052;-40
2022/03/21 01:28:28;;;;;;;0.30;0.20;;;;;;;;;;4212719;28;20047;-38
2022/03/21 01:30:29;;;;;;;0.40;0.10;;;;;;;;;;4212989;28;20051;-40
2022/03/21 01:32:29;;;;;;;0.20;0.10;;;;;;;;;;4212462;28;20147;-38
2022/03/21 01:34:30;;;;;;;0.28;0.20;;;;;;;;;;4212991;28;20052;-39
2022/03/21 01:36:31;;;;;;;0.10;0.10;;;;;;;;;;4212934;28;20294;-40
2022/03/21 01:38:32;;;;;;;0.47;0.20;;;;;;;;;;4212668;28;20056;-38
2022/03/21 01:40:33;;;;;;;0.20;0.20;;;;;;;;;;4212705;28;20458;-39
2022/03/21 01:42:36;;;;;;;0.57;0.30;;;;;;;;;;4212895;28;20056;-39
2022/03/21 01:44:38;;;;;;;0.30;0.25;;;;;;;;;;4211275;28;20044;-39
2022/03/21 01:46:39;;;;;;;0.75;0.50;;;;;;;;;;4212672;28;20099;-38
2022/03/21 01:48:40;;;;;;;0.65;0.30;;;;;;;;;;4212113;28;20048;-38
2022/03/21 01:50:41;;;;;;;0.70;0.22;;;;;;;;;;4212662;28;20048;-39
2022/03/21 01:52:43;;;;;;;0.15;0.10;;;;;;;;;;4212836;28;20097;-38
2022/03/21 01:57:04;;;;;;;0.40;0.30;;;;;;;;;;4215593;28;20439;-40
2022/03/21 01:59:05;;;;;;;0.10;0.10;;;;;;;;;;4215883;28;20055;-41
2022/03/21 02:01:07;;;;;;;0.40;0.20;;;;;;;;;;4214599;28;20503;-40
2022/03/21 02:03:08;;;;;;;0.20;0.20;;;;;;;;;;4215335;28;20048;-39
2022/03/21 02:05:09;;;;;;;0.30;0.20;;;;;;;;;;4215669;28;20104;-38
2022/03/21 02:07:10;;;;;;;0.38;0.28;;;;;;;;;;4215650;28;20487;-39
2022/03/21 02:09:12;;;;;;;0.28;0.20;;;;;;;;;;4215698;28;20102;-38
2022/03/21 02:11:15;;;;;;;0.50;0.20;;;;;;;;;;4214174;28;20434;-38
2022/03/21 02:13:18;;;;;;;1.00;0.40;;;;;;;;;;4215580;28;20052;-39
2022/03/21 02:15:19;;;;;;;0.50;0.25;;;;;;;;;;4215538;28;20051;-37
2022/03/21 02:17:21;;;;;;;0.20;0.10;;;;;;;;;;4215000;28;20491;-38
2022/03/21 02:19:22;;;;;;;0.30;0.20;;;;;;;;;;4215671;28;20047;-39
2022/03/21 02:21:37;;;;;;;0.88;0.30;;;;;;;;;;4215621;28;20060;-39
2022/03/21 02:23:51;;;;;;;0.17;0.13;;;;;;;;;;4215567;28;20082;-38
2022/03/21 02:25:54;;;;;;;0.47;0.30;;;;;;;;;;4215871;28;20086;-38
2022/03/21 02:28:00;;;;;;;0.40;0.30;;;;;;;;;;4215326;28;20047;-39
2022/03/21 02:30:01;;;;;;;0.35;0.20;;;;;;;;;;4215549;28;20040;-39
2022/03/21 02:32:02;;;;;;;0.10;0.10;;;;;;;;;;4214983;28;20078;-39
2022/03/21 02:34:04;;;;;;;0.47;0.20;;;;;;;;;;4215476;28;20056;-39
2022/03/21 02:36:05;;;;;;;1.00;0.20;;;;;;;;;;4215787;28;20051;-38
2022/03/21 02:38:06;;;;;;;0.20;0.20;;;;;;;;;;4215172;28;20491;-39
2022/03/21 02:40:08;;;;;;;0.10;0.10;;;;;;;;;;4214237;28;20519;-40
2022/03/21 02:42:09;;;;;;;0.40;0.35;;;;;;;;;;4214137;28;20048;-39
2022/03/21 02:44:10;;;;;;;0.47;0.25;;;;;;;;;;4215091;28;20445;-40
2022/03/21 02:46:11;;;;;;;0.38;0.28;;;;;;;;;;4215164;28;20052;-39
2022/03/21 02:48:13;;;;;;;0.75;0.28;;;;;;;;;;4214659;28;20089;-38
2022/03/21 02:50:33;;;;;;;0.10;0.10;;;;;;;;;;4215224;28;20055;-39
2022/03/21 02:52:34;;;;;;;;;;;;;;;;;;4215693;28;20093;-41
2022/03/21 02:54:34;;;;;;;0.25;0.20;;;;;;;;;;4214038;28;19990;-39
2022/03/21 02:56:35;;;;;;;0.88;0.30;;;;;;;;;;4215054;28;20475;-39
2022/03/21 02:58:36;;;;;;;0.10;0.10;;;;;;;;;;4214810;28;20052;-38
2022/03/21 03:00:37;;;;;;;0.30;0.10;;;;;;;;;;4214979;28;20107;-38
2022/03/21 03:02:38;;;;;;;0.22;0.20;;;;;;;;;;4213115;28;20109;-39
2022/03/21 03:04:39;;;;;;;0.20;0.20;;;;;;;;;;4214755;28;20487;-38
2022/03/21 03:06:40;;;;;;;0.30;0.20;;;;;;;;;;4214904;28;20131;-39
2022/03/21 03:08:42;;;;;;;0.30;0.20;;;;;;;;;;4212699;28;20083;-39
2022/03/21 03:10:43;;;;;;;0.20;0.20;;;;;;;;;;4214685;28;20056;-39
2022/03/21 03:12:43;;;;;;;0.63;0.22;;;;;;;;;;4214611;28;20063;-39
2022/03/21 03:14:44;;;;;;;0.57;0.35;;;;;;;;;;4214917;28;20090;-40
2022/03/21 03:16:45;;;;;;;0.50;0.20;;;;;;;;;;4214961;28;20409;-39
2022/03/21 03:18:46;;;;;;;0.30;0.20;;;;;;;;;;4213503;28;20592;-38
2022/03/21 03:20:51;;;;;;;0.30;0.20;;;;;;;;;;4213430;28;20048;-38
2022/03/21 03:22:52;;;;;;;0.65;0.30;;;;;;;;;;4214742;28;20047;-38
2022/03/21 03:24:53;;;;;;;0.25;0.20;;;;;;;;;;4214595;28;20114;-39
2022/03/21 03:26:55;;;;;;;0.52;0.32;;;;;;;;;;4214399;28;20091;-39
2022/03/21 03:28:56;;;;;;;0.40;0.38;;;;;;;;;;4214573;28;20048;-39
2022/03/21 03:31:00;;;;;;;0.55;0.32;;;;;;;;;;4214501;28;20349;-39
2022/03/21 03:33:01;;;;;;;0.40;0.28;;;;;;;;;;4213946;28;20487;-39
2022/03/21 03:35:02;;;;;;;0.52;0.45;;;;;;;;;;4214683;28;20097;-39
2022/03/21 03:37:03;;;;;;;0.30;0.20;;;;;;;;;;4214311;28;20047;-39
2022/03/21 03:39:04;;;;;;;0.93;0.30;;;;;;;;;;4214626;28;20060;-39
2022/03/21 03:41:05;;;;;;;0.13;0.10;;;;;;;;;;4214454;28;20097;-39
2022/03/21 03:43:07;;;;;;;0.45;0.32;;;;;;;;;;4214173;28;20047;-39
2022/03/21 03:45:08;;;;;;;0.73;0.30;;;;;;;;;;4214285;28;20106;-39
2022/03/21 03:47:09;;;;;;;0.20;0.20;;;;;;;;;;4213857;28;20052;-38
2022/03/21 03:49:10;;;;;;;0.40;0.30;;;;;;;;;;4214232;28;20113;-39
2022/03/21 03:51:11;;;;;;;0.20;0.20;;;;;;;;;;4214223;28;20094;-39
2022/03/21 03:53:12;;;;;;;0.70;0.30;;;;;;;;;;4214291;28;20070;-38
2022/03/21 03:55:14;;;;;;;0.30;0.30;;;;;;;;;;4212665;28;20091;-39
2022/03/21 03:57:15;;;;;;;0.38;0.30;;;;;;;;;;4212644;28;20105;-39
2022/03/21 03:59:16;;;;;;;0.30;0.30;;;;;;;;;;4214243;28;20060;-38
2022/03/21 04:01:17;;;;;;;0.30;0.30;;;;;;;;;;4214045;28;20097;-38
2022/03/21 04:05:37;;;;;;;0.40;0.30;;;;;;;;;;4213939;28;20495;-40
2022/03/21 04:07:38;;;;;;;0.50;0.30;;;;;;;;;;4213826;28;20098;-38
2022/03/21 04:09:39;;;;;;;0.20;0.20;;;;;;;;;;4213971;28;20075;-38
2022/03/21 04:11:40;;;;;;;0.45;0.20;;;;;;;;;;4213734;28;20060;-39
2022/03/21 04:13:41;;;;;;;0.70;0.40;;;;;;;;;;4213900;28;20092;-39
2022/03/21 04:15:42;;;;;;;0.45;0.30;;;;;;;;;;4213926;28;20101;-39
2022/03/21 04:17:43;;;;;;;0.32;0.30;;;;;;;;;;4213220;28;20060;-38
2022/03/21 04:19:44;;;;;;;0.28;0.22;;;;;;;;;;4213664;28;20055;-38
2022/03/21 04:21:45;;;;;;;0.32;0.20;;;;;;;;;;4213502;28;20048;-39
2022/03/21 04:23:46;;;;;;;0.50;0.32;;;;;;;;;;4213514;28;20100;-39
2022/03/21 04:25:47;;;;;;;0.35;0.30;;;;;;;;;;4213468;28;20083;-39
2022/03/21 04:27:48;;;;;;;0.15;0.15;;;;;;;;;;4213442;28;20483;-38
2022/03/21 04:29:49;;;;;;;0.40;0.30;;;;;;;;;;4213551;28;20423;-40
2022/03/21 04:31:50;;;;;;;0.68;0.40;;;;;;;;;;4213053;28;20050;-39
2022/03/21 04:33:50;;;;;;;0.65;0.38;;;;;;;;;;4213362;28;20308;-39
2022/03/21 04:35:51;;;;;;;0.30;0.30;;;;;;;;;;4213458;28;20090;-38
2022/03/21 04:37:52;;;;;;;0.40;0.30;;;;;;;;;;4213238;28;20071;-39
2022/03/21 04:39:53;;;;;;;0.65;0.35;;;;;;;;;;4213346;28;20568;-39
2022/03/21 04:41:54;;;;;;;1.00;0.40;;;;;;;;;;4213323;28;20056;-38
2022/03/21 04:43:55;;;;;;;0.82;0.30;;;;;;;;;;4213219;28;20181;-40
2022/03/21 04:45:56;;;;;;;0.50;0.25;;;;;;;;;;4213520;28;20048;-39
2022/03/21 04:47:57;;;;;;;0.47;0.43;;;;;;;;;;4212889;28;20091;-39
2022/03/21 04:49:58;;;;;;;0.22;0.20;;;;;;;;;;4213555;28;20074;-39
2022/03/21 04:51:58;;;;;;;0.43;0.30;;;;;;;;;;4213356;28;20543;-39
2022/03/21 04:53:59;;;;;;;0.50;0.50;;;;;;;;;;4213039;28;20291;-39
2022/03/21 04:56:00;;;;;;;0.50;0.40;;;;;;;;;;4212186;28;20153;-40
2022/03/21 04:58:01;;;;;;;0.38;0.30;;;;;;;;;;4213098;28;20047;-39
2022/03/21 05:00:03;;;;;;;0.50;0.40;;;;;;;;;;4213362;28;20445;-38
2022/03/21 05:02:04;;;;;;;1.27;0.40;;;;;;;;;;4212636;28;20594;-39
2022/03/21 05:04:08;;;;;;;0.32;0.30;;;;;;;;;;4211988;28;20052;-38
2022/03/21 05:06:08;;;;;;;0.40;0.30;;;;;;;;;;4211768;28;20106;-40
2022/03/21 05:08:09;;;;;;;0.30;0.30;;;;;;;;;;4212844;28;20052;-40
2022/03/21 05:10:10;;;;;;;0.70;0.30;;;;;;;;;;4212717;28;20443;-38
2022/03/21 05:12:12;;;;;;;0.55;0.40;;;;;;;;;;4212908;28;20047;-38
2022/03/21 05:14:13;;;;;;;0.52;0.40;;;;;;;;;;4212893;28;20047;-38
2022/03/21 05:16:14;;;;;;;0.65;0.43;;;;;;;;;;4212847;28;20273;-38
2022/03/21 05:18:16;;;;;;;1.10;0.50;;;;;;;;;;4212360;28;20052;-38
2022/03/21 05:20:17;;;;;;;0.85;0.30;;;;;;;;;;4212909;28;20048;-37
2022/03/21 05:22:18;;;;;;;0.80;0.50;;;;;;;;;;4211358;28;20514;-38
2022/03/21 05:31:17;;;;;;;0.73;0.60;;;;;;;;;;4212612;28;20040;-39
2022/03/21 05:35:54;;;;;;;0.85;0.57;;;;;;;;;;4211501;28;20059;-39
2022/03/21 05:37:55;;;;;;;1.17;0.90;;;;;;;;;;4211261;28;20055;-39
2022/03/21 05:42:16;;;;;;;1.52;1.02;;;;;;;;;;4211395;28;20548;-38
2022/03/21 05:44:17;;;;;;;1.85;1.42;;;;;;;;;;4212604;28;20090;-39
2022/03/21 05:46:18;;;;;;;2.17;1.55;;;;;;;;;;4212680;28;20048;-39
2022/03/21 05:50:39;;;;;;;2.60;1.80;;;;;;;;;;4212709;28;20381;-39
2022/03/21 05:52:40;;;;;;;2.10;1.60;;;;;;;;;;4212411;28;20044;-38
2022/03/21 05:54:41;;;;;;;4.38;1.92;;;;;;;;;;4212554;28;20073;-38
2022/03/21 05:56:42;;;;;;;2.22;2.03;;;;;;;;;;4212574;28;20059;-39
2022/03/21 05:58:43;;;;;;;3.05;2.13;;;;;;;;;;4212514;28;20498;-38
2022/03/21 06:00:44;;;;;;;3.05;2.28;;;;;;;;;;4209604;28;20071;-38
2022/03/21 06:02:45;;;;;;;3.22;2.50;;;;;;;;;;4210131;28;20135;-38
2022/03/21 06:04:48;;;;;;;2.72;2.28;;;;;;;;;;4210685;28;20453;-40
2022/03/21 06:06:49;;;;;;;2.95;2.33;;;;;;;;;;4210798;28;20063;-38
2022/03/21 06:08:51;;;;;;;2.88;2.58;;;;;;;;;;4210756;28;20110;-38
2022/03/21 06:11:03;;;;;;;3.42;2.50;;;;;;;;;;4210448;28;20056;-38
2022/03/21 06:13:07;;;;;;;4.38;2.72;;;;;;;;;;4210295;28;20791;-40
2022/03/21 06:15:09;;;;;;;2.97;2.60;;;;;;;;;;4210437;28;20052;-38
2022/03/21 06:17:09;;;;;;;3.25;2.60;;;;;;;;;;4210131;28;20052;-38
2022/03/21 06:19:10;;;;;;;3.25;2.55;;;;;;;;;;4210642;28;20574;-40
2022/03/21 06:21:12;;;;;;;3.40;2.70;;;;;;;;;;4210541;28;20587;-39
2022/03/21 06:23:12;;;;;;;2.90;2.53;;;;;;;;;;4210324;28;20391;-38
2022/03/21 06:25:13;;;;;;;4.63;3.05;;;;;;;;;;4210015;28;20053;-39
2022/03/21 06:27:14;;;;;;;3.20;2.90;;;;;;;;;;4210339;28;20099;-38
2022/03/21 06:29:15;;;;;;;3.22;2.67;;;;;;;;;;4207263;28;20099;-39
2022/03/21 06:31:16;;;;;;;4.90;2.65;;;;;;;;;;4195852;28;20459;-40
2022/03/21 06:33:17;;;;;;;6.05;3.30;;;;;;;;;;4198109;28;20486;-39
2022/03/21 06:35:18;;;;;;;4.05;3.15;;;;;;;;;;4200858;28;20316;-37
2022/03/21 06:37:19;;;;;;;4.60;3.00;;;;;;;;;;4200243;28;20193;-36
2022/03/21 06:39:20;;;;;;;5.97;2.97;;;;;;;;;;4197457;28;20052;-39
2022/03/21 06:41:21;;;;;;;3.10;2.80;;;;;;;;;;4200599;28;20466;-37
2022/03/21 06:43:24;;;;;;;4.57;2.85;;;;;;;;;;4196536;28;20060;-37
2022/03/21 06:45:25;;;;;;;5.10;3.50;;;;;;;;;;4199914;28;20043;-38
2022/03/21 06:47:26;;;;;;;3.70;3.20;;;;;;;;;;4203517;28;20428;-39
2022/03/21 06:49:29;;;;;;;4.85;3.08;;;;;;;;;;4203787;28;20441;-39
2022/03/21 06:51:30;;;;;;;5.60;3.63;;;;;;;;;;4205000;28;20091;-37
2022/03/21 06:53:32;;;;;;;4.40;3.35;;;;;;;;;;4202592;28;20165;-38
2022/03/21 06:55:33;;;;;;;5.05;3.75;;;;;;;;;;4200488;28;20093;-39
2022/03/21 06:57:34;;;;;;;5.20;3.25;;;;;;;;;;4204981;28;20055;-37
2022/03/21 06:59:35;;;;;;;4.63;3.38;;;;;;;;;;4206640;28;20510;-37
2022/03/21 07:01:37;;;;;;;5.20;3.45;;;;;;;;;;4200051;28;20060;-37
2022/03/21 07:03:38;;;;;;;4.93;3.20;;;;;;;;;;4200521;28;20457;-40
2022/03/21 07:05:38;;;;;;;4.90;3.28;;;;;;;;;;4197299;28;20127;-37
2022/03/21 07:07:39;;;;;;;4.40;3.58;;;;;;;;;;4197700;28;20092;-38
2022/03/21 07:09:40;;;;;;;5.13;3.83;;;;;;;;;;4199883;28;20105;-38
2022/03/21 07:11:41;;;;;;;4.53;3.42;;;;;;;;;;4192772;28;21179;-39
2022/03/21 07:13:42;;;;;;;5.35;3.53;;;;;;;;;;4195812;28;20075;-41
2022/03/21 07:15:44;;;;;;;5.32;3.47;;;;;;;;;;4193573;28;20292;-40
2022/03/21 07:17:45;;;;;;;6.80;3.65;;;;;;;;;;4182724;28;20060;-38
2022/03/21 07:19:46;;;;;;;8.50;3.67;;;;;;;;;;4187457;28;20067;-41
2022/03/21 07:21:48;;;;;;;4.40;3.58;;;;;;;;;;4189917;28;20096;-38
2022/03/21 07:23:49;;;;;;;5.72;4.03;;;;;;;;;;4188899;28;20643;-39
2022/03/21 07:25:50;;;;;;;5.40;3.38;;;;;;;;;;4191827;28;20121;-42
2022/03/21 07:27:54;;;;;;;7.28;3.58;;;;;;;;;;4191107;28;20052;-38
2022/03/21 07:29:55;;;;;;;5.00;3.72;;;;;;;;;;4181180;28;21164;-38
2022/03/21 07:31:57;;;;;;;5.93;3.60;;;;;;;;;;4183939;28;20051;-40
2022/03/21 07:33:58;;;;;;;6.38;3.20;;;;;;;;;;4182562;28;20056;-36
2022/03/21 07:35:58;;;;;;;7.90;3.20;;;;;;;;;;4183621;28;20102;-40
2022/03/21 07:38:00;;;;;;;3.80;3.15;;;;;;;;;;4185834;28;20175;-42
2022/03/21 07:40:01;;;;;;;5.65;3.60;;;;;;;;;;4182370;28;20410;-37
2022/03/21 07:42:02;;;;;;;4.35;3.95;;;;;;;;;;4190816;28;20048;-43
2022/03/21 07:44:03;;;;;;;6.97;3.95;;;;;;;;;;4189463;28;20105;-38
2022/03/21 07:48:27;;;;;;;;;;;;;;;;;;4196446;28;20060;-35
2022/03/21 07:50:29;;;;;;;4.10;3.17;;;;;;;;;;4193397;28;20132;-38
2022/03/21 07:52:30;;;;;;;3.97;3.40;;;;;;;;;;4189698;28;20116;-37
2022/03/21 07:54:31;;;;;;;5.82;3.20;;;;;;;;;;4193733;28;20493;-36
2022/03/21 07:56:32;;;;;;;5.22;3.25;;;;;;;;;;4192383;28;20132;-39
2022/03/21 07:58:33;;;;;;;5.22;3.28;;;;;;;;;;4189931;28;20696;-37
2022/03/21 08:00:33;;;;;;;3.20;2.90;;;;;;;;;;4181950;28;20101;-42
2022/03/21 08:02:35;;;;;;;4.75;3.60;;;;;;;;;;4169861;28;20204;-38
2022/03/21 08:04:35;;;;;;;3.90;3.50;;;;;;;;;;4172652;28;20925;-37
2022/03/21 08:06:37;;;;;;;4.43;3.70;;;;;;;;;;4166520;28;20052;-40
2022/03/21 08:08:38;;;;;;;6.13;3.20;;;;;;;;;;4171225;28;20082;-36
2022/03/21 08:10:39;;;;;;;3.70;3.38;;;;;;;;;;4181553;28;20098;-36
2022/03/21 08:12:42;;;;;;;4.93;3.72;;;;;;;;;;4169345;28;20147;-39
2022/03/21 08:14:43;;;;;;;3.45;3.15;;;;;;;;;;4173601;28;20052;-39
2022/03/21 08:16:44;;;;;;;5.07;3.45;;;;;;;;;;4182090;28;20124;-39
2022/03/21 08:18:44;;;;;;;3.65;3.30;;;;;;;;;;4182938;28;20052;-39
2022/03/21 08:20:45;;;;;;;3.28;2.80;;;;;;;;;;4180408;28;20082;-40
2022/03/21 08:22:47;;;;;;;4.78;3.53;;;;;;;;;;4176502;28;20044;-41
2022/03/21 08:24:48;;;;;;;5.03;2.85;;;;;;;;;;4179840;28;20560;-40
2022/03/21 08:26:49;;;;;;;6.47;2.95;;;;;;;;;;4185761;28;20056;-38
2022/03/21 08:28:50;;;;;;;4.57;2.85;;;;;;;;;;4186643;28;20048;-41
2022/03/21 08:30:51;;;;;;;3.55;3.15;;;;;;;;;;4183543;28;20048;-37
2022/03/21 08:32:52;;;;;;;4.30;3.20;;;;;;;;;;4179522;28;20110;-42
2022/03/21 08:34:53;;;;;;;3.42;2.88;;;;;;;;;;4183649;28;20134;-39
2022/03/21 08:36:54;;;;;;;4.53;2.90;;;;;;;;;;4180674;28;20147;-39
2022/03/21 08:38:55;;;;;;;5.85;3.05;;;;;;;;;;4186774;28;21021;-40
2022/03/21 08:40:58;;;;;;;3.63;3.03;;;;;;;;;;4181134;28;20055;-40
2022/03/21 08:42:58;;;;;;;2.83;2.60;;;;;;;;;;4183655;28;20067;-42
2022/03/21 08:45:00;;;;;;;3.00;2.55;;;;;;;;;;4186371;28;20408;-39
2022/03/21 08:47:01;;;;;;;3.45;3.05;;;;;;;;;;4181976;28;20106;-39
2022/03/21 08:51:23;;;;;;;3.53;3.15;;;;;;;;;;4181697;28;20527;-38
2022/03/21 08:53:24;;;;;;;5.28;2.83;;;;;;;;;;4184643;28;20059;-41
2022/03/21 08:55:25;;;;;;;3.20;2.70;;;;;;;;;;4185713;28;20121;-42
2022/03/21 08:57:26;;;;;;;4.28;2.70;;;;;;;;;;4185747;28;20058;-39
2022/03/21 08:59:27;;;;;;;5.18;2.72;;;;;;;;;;4175880;28;20052;-40
2022/03/21 09:01:28;;;;;;;4.07;2.58;;;;;;;;;;4169125;28;20056;-43
2022/03/21 09:03:29;;;;;;;4.80;3.00;;;;;;;;;;4169940;28;20056;-41
2022/03/21 09:05:31;;;;;;;3.13;2.63;;;;;;;;;;4171925;28;20071;-40
2022/03/21 09:07:32;;;;;;;5.22;2.97;;;;;;;;;;4187386;28;20062;-38
2022/03/21 09:09:33;;;;;;;3.40;2.65;;;;;;;;;;4186161;28;20104;-40
2022/03/21 09:11:35;;;;;;;4.57;2.63;;;;;;;;;;4176928;28;20560;-36
2022/03/21 09:13:36;;;;;;;5.85;3.25;;;;;;;;;;4189144;28;20056;-38
2022/03/21 09:15:37;;;;;;;3.88;2.75;;;;;;;;;;4180261;28;20110;-38
2022/03/21 09:17:38;;;;;;;3.20;2.60;;;;;;;;;;4182600;28;20167;-38
2022/03/21 09:19:39;;;;;;;3.83;2.95;;;;;;;;;;4180391;28;20090;-38
2022/03/21 09:21:40;;;;;;;2.95;2.50;;;;;;;;;;4190208;28;20056;-38
2022/03/21 09:23:41;;;;;;;3.03;2.63;;;;;;;;;;4189368;28;20095;-36
2022/03/21 09:25:43;;;;;;;3.58;2.78;;;;;;;;;;4183012;28;20588;-38
2022/03/21 09:27:44;;;;;;;3.45;2.63;;;;;;;;;;4184442;28;21078;-39
2022/03/21 09:29:45;;;;;;;6.28;2.65;;;;;;;;;;4184682;28;20759;-40
2022/03/21 09:31:47;;;;;;;3.28;2.75;;;;;;;;;;4176899;28;20047;-38
2022/03/21 09:33:48;;;;;;;2.63;2.40;;;;;;;;;;4180449;28;20097;-38
2022/03/21 09:35:49;;;;;;;4.32;2.38;;;;;;;;;;4184124;28;20052;-39
2022/03/21 09:37:50;;;;;;;3.40;2.88;;;;;;;;;;4191249;28;20056;-40
2022/03/21 09:39:51;;;;;;;2.72;2.53;;;;;;;;;;4183945;28;20065;-40
2022/03/21 09:41:52;;;;;;;2.40;2.20;;;;;;;;;;4183126;28;20112;-37
2022/03/21 09:43:54;;;;;;;3.38;2.55;;;;;;;;;;4184529;28;20056;-38
2022/03/21 09:45:59;;;;;;;3.03;2.72;;;;;;;;;;4179161;28;20043;-38
2022/03/21 09:48:12;;;;;;;3.70;2.35;;;;;;;;;;4182464;28;20365;-40
2022/03/21 09:50:13;;;;;;;2.65;2.38;;;;;;;;;;4183673;28;20133;-38
2022/03/21 09:52:15;;;;;;;3.03;2.47;;;;;;;;;;4190188;28;20052;-39
2022/03/21 09:54:16;;;;;;;2.60;2.40;;;;;;;;;;4190108;28;20283;-37
2022/03/21 09:56:18;;;;;;;2.85;2.40;;;;;;;;;;4185154;28;20048;-37
2022/03/21 09:58:20;;;;;;;4.80;2.25;;;;;;;;;;4185838;28;20159;-38
2022/03/21 10:00:21;;;;;;;3.25;2.45;;;;;;;;;;4179713;28;21870;-40
2022/03/21 10:02:22;;;;;;;2.58;2.33;;;;;;;;;;4175177;28;20078;-43
2022/03/21 10:04:22;;;;;;;3.33;2.50;;;;;;;;;;4174947;28;20763;-38
2022/03/21 10:06:34;;;;;;;3.85;2.33;;;;;;;;;;4178747;28;20118;-39
2022/03/21 10:08:35;;;;;;;3.95;2.55;;;;;;;;;;4182504;28;20055;-40
2022/03/21 10:10:36;;;;;;;4.50;2.63;;;;;;;;;;4186789;28;20055;-37
2022/03/21 10:12:37;;;;;;;4.85;2.35;;;;;;;;;;4182793;28;20063;-41
2022/03/21 10:14:38;;;;;;;3.33;2.53;;;;;;;;;;4172594;28;20139;-41
2022/03/21 10:16:55;;;;;;;4.18;1.95;;;;;;;;;;4184345;28;20319;-42
2022/03/21 10:18:57;;;;;;;5.68;2.42;;;;;;;;;;4192110;28;20055;-37
2022/03/21 10:21:15;;;;;;;3.83;2.88;;;;;;;;;;4191320;28;20056;-40
2022/03/21 10:23:17;;;;;;;5.88;2.22;;;;;;;;;;4189822;28;20055;-40
2022/03/21 10:25:19;;;;;;;2.55;2.10;;;;;;;;;;4187004;28;20047;-39
2022/03/21 10:27:29;;;;;;;3.20;2.30;;;;;;;;;;4187078;28;20052;-37
2022/03/21 10:29:31;;;;;;;2.88;2.63;;;;;;;;;;4182070;28;20101;-39
2022/03/21 10:31:36;;;;;;;3.17;2.28;;;;;;;;;;4186668;28;20102;-39
2022/03/21 10:33:37;;;;;;;3.40;2.20;;;;;;;;;;4186532;28;20056;-38
2022/03/21 10:35:46;;;;;;;3.80;2.45;;;;;;;;;;4188655;28;20106;-39
2022/03/21 10:37:55;;;;;;;3.15;2.35;;;;;;;;;;4182449;28;20056;-42
2022/03/21 10:39:58;;;;;;;2.95;2.40;;;;;;;;;;4179710;28;20056;-40
2022/03/21 10:42:03;;;;;;;3.25;2.35;;;;;;;;;;4183054;28;20068;-39
2022/03/21 10:44:05;;;;;;;2.53;2.28;;;;;;;;;;4185849;28;20082;-40
2022/03/21 10:46:08;;;;;;;3.95;2.70;;;;;;;;;;4184347;28;20056;-40
2022/03/21 10:48:11;;;;;;;5.45;2.10;;;;;;;;;;4189135;28;20504;-38
2022/03/21 10:50:12;;;;;;;2.70;2.33;;;;;;;;;;4185291;28;21703;-41
2022/03/21 10:52:21;;;;;;;4.97;2.72;;;;;;;;;;4182520;28;20131;-40
2022/03/21 10:54:41;;;;;;;4.60;2.35;;;;;;;;;;4184695;28;20287;-38
2022/03/21 10:56:42;;;;;;;2.90;2.28;;;;;;;;;;4192417;28;20059;-45
2022/03/21 10:58:44;;;;;;;2.67;2.20;;;;;;;;;;4193514;28;20046;-40
2022/03/21 11:00:45;;;;;;;2.95;2.40;;;;;;;;;;4193995;28;20079;-41
2022/03/21 11:02:55;;;;;;;4.63;2.38;;;;;;;;;;4190456;28;20079;-39
2022/03/21 11:04:56;;;;;;;2.92;2.45;;;;;;;;;;4196895;28;20599;-42
2022/03/21 11:06:57;;;;;;;2.55;2.05;;;;;;;;;;4190168;28;20093;-40
2022/03/21 11:08:58;;;;;;;2.75;2.25;;;;;;;;;;4195032;28;20052;-40
2022/03/21 11:10:59;;;;;;;2.63;2.22;;;;;;;;;;4196573;28;20133;-42
2022/03/21 11:13:01;;;;;;;2.83;2.25;;;;;;;;;;4196816;28;20056;-39
2022/03/21 11:15:04;;;;;;;3.15;2.80;;;;;;;;;;4193593;28;20112;-41
2022/03/21 11:17:06;;;;;;;2.10;1.75;;;;;;;;;;4201041;28;20391;-40
2022/03/21 11:19:07;;;;;;;3.20;2.40;;;;;;;;;;4191602;28;20052;-44
2022/03/21 11:21:11;;;;;;;3.53;1.98;;;;;;;;;;4198363;28;20051;-39
2022/03/21 11:23:15;;;;;;;2.60;2.10;;;;;;;;;;4196933;28;20439;-40
2022/03/21 11:25:17;;;;;;;2.63;2.35;;;;;;;;;;4191136;28;20065;-39
2022/03/21 11:27:31;;;;;;;2.40;2.20;;;;;;;;;;4199687;28;20094;-39
2022/03/21 11:29:52;;;;;;;6.57;2.60;;;;;;;;;;4195394;28;20097;-37
2022/03/21 11:32:02;;;;;;;2.63;2.13;;;;;;;;;;4186977;28;20059;-36
2022/03/21 11:34:18;;;;;;;2.25;2.05;;;;;;;;;;4185127;28;20053;-38
2022/03/21 11:36:19;;;;;;;2.72;2.40;;;;;;;;;;4182202;28;20085;-39
2022/03/21 11:38:24;;;;;;;2.75;2.25;;;;;;;;;;4184352;28;21523;-39
2022/03/21 11:40:26;;;;;;;2.63;2.20;;;;;;;;;;4191516;28;20560;-40
2022/03/21 11:42:27;;;;;;;2.60;2.40;;;;;;;;;;4193217;28;20052;-40
2022/03/21 11:44:28;;;;;;;3.83;2.40;;;;;;;;;;4182545;28;20145;-41
2022/03/21 11:46:31;;;;;;;2.58;2.13;;;;;;;;;;4186234;28;20055;-41
2022/03/21 11:48:32;;;;;;;2.45;2.25;;;;;;;;;;4188298;28;20053;-38
2022/03/21 11:50:33;;;;;;;4.07;2.38;;;;;;;;;;4188657;28;20492;-39
2022/03/21 11:52:53;;;;;;;3.22;2.55;;;;;;;;;;4190996;28;21045;-39
2022/03/21 11:54:54;;;;;;;2.53;2.33;;;;;;;;;;4187238;28;20640;-40
2022/03/21 11:56:59;;;;;;;2.78;2.10;;;;;;;;;;4187012;28;20059;-41
2022/03/21 11:59:00;;;;;;;4.05;2.38;;;;;;;;;;4183587;28;20144;-40
2022/03/21 12:01:09;;;;;;;3.10;2.28;;;;;;;;;;4175264;28;20139;-41
2022/03/21 12:03:25;;;;;;;3.58;2.45;;;;;;;;;;4182795;28;20178;-39
2022/03/21 12:05:36;;;;;;;3.47;2.17;;;;;;;;;;4190215;28;20048;-37
2022/03/21 12:07:41;;;;;;;3.38;2.70;;;;;;;;;;4179739;28;20549;-38
2022/03/21 12:09:46;;;;;;;3.13;2.42;;;;;;;;;;4185710;28;20052;-37
2022/03/21 12:11:48;;;;;;;2.22;2.03;;;;;;;;;;4186697;28;20503;-39
2022/03/21 12:14:09;;;;;;;4.35;2.53;;;;;;;;;;4186747;28;20052;-38
2022/03/21 12:16:18;;;;;;;3.47;2.33;;;;;;;;;;4186499;28;20559;-40
2022/03/21 12:18:19;;;;;;;3.13;1.85;;;;;;;;;;4188675;28;20490;-41
2022/03/21 12:20:20;;;;;;;2.20;2.00;;;;;;;;;;4188350;28;20509;-39
2022/03/21 12:22:33;;;;;;;2.50;2.30;;;;;;;;;;4182262;28;20048;-39
2022/03/21 12:24:48;;;;;;;3.00;2.60;;;;;;;;;;4188126;28;20652;-42
2022/03/21 12:26:53;;;;;;;2.08;1.88;;;;;;;;;;4192508;28;20113;-40
2022/03/21 12:31:27;;;;;;;3.05;2.30;;;;;;;;;;4185441;28;20052;-39
2022/03/21 12:33:28;;;;;;;3.35;2.47;;;;;;;;;;4185435;28;20044;-39
2022/03/21 12:35:32;;;;;;;4.47;2.33;;;;;;;;;;4183480;28;20141;-39
2022/03/21 12:37:36;;;;;;;3.47;2.20;;;;;;;;;;4188191;28;20192;-37
2022/03/21 12:39:37;;;;;;;2.97;2.35;;;;;;;;;;4184238;28;20052;-38